createdAt,value
2023-04-30T22:23:22.769Z,101655.13
2023-04-30T22:25:49.237Z,101656.47
2023-04-30T22:28:19.310Z,101662.16
2023-04-30T22:30:46.152Z,101654.59
2023-04-30T22:33:12.681Z,101654.66
2023-04-30T22:35:39.310Z,101658.38
2023-04-30T22:38:07.216Z,101656.03
2023-04-30T22:40:35.059Z,101657.97
2023-04-30T22:43:01.888Z,101655.50
2023-04-30T22:45:30.139Z,101644.66
2023-04-30T22:47:58.919Z,101647.47
2023-04-30T22:50:27.208Z,101646.69
2023-04-30T22:52:54.364Z,101645.06
2023-04-30T22:55:20.967Z,101646.13
2023-04-30T22:57:47.347Z,101639.91
2023-04-30T23:00:14.269Z,101648.97
2023-04-30T23:02:40.725Z,101637.44
2023-04-30T23:05:07.755Z,101639.06
2023-04-30T23:07:34.137Z,101642.47
2023-04-30T23:10:00.584Z,101634.97
2023-04-30T23:12:27.558Z,101637.84
2023-04-30T23:14:53.987Z,101634.69
2023-04-30T23:17:20.579Z,101625.66
2023-04-30T23:19:46.971Z,101634.44
2023-04-30T23:22:13.348Z,101628.66
2023-04-30T23:24:41.083Z,101623.59
2023-04-30T23:27:08.045Z,101628.34
2023-04-30T23:29:36.132Z,101622.13
2023-04-30T23:32:02.981Z,101619.31
2023-04-30T23:34:29.410Z,101618.41
2023-04-30T23:36:55.823Z,101611.47
2023-04-30T23:39:24.251Z,101612.03
2023-04-30T23:41:52.153Z,101610.19
2023-04-30T23:44:18.601Z,101615.81
2023-04-30T23:46:45.091Z,101619.31
2023-04-30T23:49:11.560Z,101615.41
2023-04-30T23:51:37.953Z,101609.16
2023-04-30T23:54:05.743Z,101616.31
2023-04-30T23:56:33.850Z,101620.28
2023-04-30T23:59:00.371Z,101615.19
